Terminal Aerodrome Forecast
Issued by NWS Greer, SC

Home | Current Version | Previous Version | Text Only | Print | Product List | Glossary On
Versions: 1 2 3 4 5 6 7 8 9 10 11 12 13 14 15 16 17 18 19 20 21 22 23 24 25 26 27
000
FTUS42 KGSP 272337
TAFCLT
TAF
KCLT 272337Z 2800/2824 14005KT P6SM SCT080 BKN150 OVC250
     FM280800 VRB03KT P6SM SCT030 BKN060
     FM281100 11003KT 6SM BR SCT018 BKN030
     FM281300 20003KT P6SM BKN018
     FM281700 21008KT P6SM BKN035=

USA.gov is the U.S. government's official web portal to all federal, state and local government web resources and services.